Time;durP1;ratioP1;P1;durP2;ratioP2;P2;SDS_P1;SDS_P2;PMS_P1;PMS_P2;Temp;Humidity;BMP_temperature;BMP_pressure;BME280_temperature;BME280_humidity;BME280_pressure;Samples;Min_cycle;Max_cycle;Signal;HPM_P1;HPM_P2
2022/08/03 00:00:24;;;;;;;2.20;1.27;;;17.20;99.90;;;;;;5129538;27;20515;-49
2022/08/03 00:02:51;;;;;;;3.03;1.40;;;17.20;99.90;;;;;;5135962;27;20092;-49
2022/08/03 00:05:18;;;;;;;4.15;1.30;;;17.20;99.90;;;;;;5136199;27;20043;-48
2022/08/03 00:07:45;;;;;;;3.22;1.27;;;17.20;99.90;;;;;;5121230;27;20040;-51
2022/08/03 00:10:14;;;;;;;2.67;1.33;;;17.10;99.90;;;;;;5128284;27;20047;-50
2022/08/03 00:12:41;;;;;;;2.22;1.42;;;17.10;99.90;;;;;;5135795;27;20035;-49
2022/08/03 00:15:08;;;;;;;3.60;1.67;;;17.00;99.90;;;;;;5130179;27;20051;-49
2022/08/03 00:17:39;;;;;;;2.50;1.40;;;17.00;99.90;;;;;;5120118;27;20115;-53
2022/08/03 00:20:20;;;;;;;1.70;1.17;;;17.00;99.90;;;;;;5114989;28;20054;-48
2022/08/03 00:22:48;;;;;;;2.80;2.50;;;17.00;99.90;;;;;;5115659;27;20123;-48
2022/08/03 00:25:15;;;;;;;3.78;1.40;;;17.00;99.90;;;;;;5126903;27;20042;-50
2022/08/03 00:27:42;;;;;;;2.10;1.40;;;16.90;99.90;;;;;;5135680;27;20058;-50
2022/08/03 00:30:09;;;;;;;1.55;1.23;;;16.90;99.90;;;;;;5135169;27;20074;-50
2022/08/03 00:32:36;;;;;;;;;;;16.90;99.90;;;;;;5130082;27;20047;-49
2022/08/03 00:35:10;;;;;;;1.77;1.33;;;16.80;99.90;;;;;;5111089;27;19923;-49
2022/08/03 00:37:57;;;;;;;1.52;1.33;;;16.80;99.90;;;;;;5114822;28;20105;-50
2022/08/03 00:40:24;;;;;;;2.60;1.40;;;16.80;99.90;;;;;;5090751;28;20390;-48
2022/08/03 00:43:02;;;;;;;2.20;1.45;;;16.80;99.90;;;;;;5122866;27;20036;-50
2022/08/03 00:45:32;;;;;;;2.42;1.80;;;16.80;99.90;;;;;;5135431;27;20047;-49
2022/08/03 00:48:00;;;;;;;1.98;1.25;;;16.80;99.90;;;;;;5135198;27;20426;-50
2022/08/03 00:50:28;;;;;;;2.58;1.38;;;16.80;99.90;;;;;;5121405;27;20059;-52
2022/08/03 00:52:58;;;;;;;1.60;1.38;;;16.80;99.90;;;;;;5123655;27;20046;-49
2022/08/03 00:55:25;;;;;;;2.47;1.25;;;16.70;99.90;;;;;;5134970;27;20039;-49
2022/08/03 00:57:52;;;;;;;2.85;1.50;;;16.70;99.90;;;;;;5140712;22;20052;-49
2022/08/03 01:00:23;;;;;;;4.30;1.63;;;16.70;99.90;;;;;;5120932;27;20032;-50
2022/08/03 01:02:51;;;;;;;1.42;1.30;;;16.80;99.90;;;;;;5114053;28;20039;-49
2022/08/03 01:05:19;;;;;;;2.55;1.50;;;16.70;99.90;;;;;;5114079;28;20047;-49
2022/08/03 01:07:52;;;;;;;2.00;1.52;;;16.70;99.90;;;;;;5103675;28;20067;-49
2022/08/03 01:10:24;;;;;;;2.78;1.67;;;16.60;99.90;;;;;;5114087;28;20047;-49
2022/08/03 01:12:58;;;;;;;2.90;1.55;;;16.60;99.90;;;;;;5114301;28;20047;-49
2022/08/03 01:15:38;;;;;;;2.03;1.50;;;16.60;99.90;;;;;;5114101;28;20043;-48
2022/08/03 01:18:24;;;;;;;3.28;1.30;;;16.50;99.90;;;;;;5113720;28;20400;-49
2022/08/03 01:20:57;;;;;;;3.78;1.60;;;16.40;99.90;;;;;;5113602;28;20047;-49
2022/08/03 01:23:47;;;;;;;3.67;1.38;;;16.40;99.90;;;;;;5114138;28;20559;-49
2022/08/03 01:26:35;;;;;;;8.20;1.15;;;16.40;99.90;;;;;;5101880;28;20059;-49
2022/08/03 01:29:02;;;;;;;;;;;16.40;99.90;;;;;;5114075;28;20043;-48
2022/08/03 01:31:43;;;;;;;4.95;1.52;;;16.30;99.90;;;;;;5113588;28;20004;-49
2022/08/03 01:34:40;;;;;;;2.10;1.60;;;16.20;99.90;;;;;;5113184;28;20047;-49
2022/08/03 01:37:09;;;;;;;1.35;1.25;;;16.10;99.90;;;;;;5105579;28;20040;-50
2022/08/03 01:39:38;;;;;;;4.75;1.75;;;16.00;99.90;;;;;;5113836;28;20048;-49
2022/08/03 01:42:09;;;;;;;2.70;1.98;;;16.00;99.90;;;;;;5113226;28;20380;-49
2022/08/03 01:44:42;;;;;;;2.72;1.83;;;15.90;99.90;;;;;;5113437;28;20044;-49
2022/08/03 01:47:11;;;;;;;1.75;1.40;;;15.90;99.90;;;;;;5093283;28;20538;-50
2022/08/03 01:49:42;;;;;;;1.67;1.38;;;15.70;99.90;;;;;;5093101;28;20039;-54
2022/08/03 01:52:10;;;;;;;3.78;1.65;;;15.70;99.90;;;;;;5098031;28;20438;-48
2022/08/03 01:54:42;;;;;;;2.08;1.40;;;15.70;99.90;;;;;;5113328;28;20093;-50
2022/08/03 01:57:10;;;;;;;5.43;1.95;;;15.60;99.90;;;;;;5113284;28;20048;-50
2022/08/03 01:59:38;;;;;;;3.47;1.40;;;15.60;99.90;;;;;;5113268;28;20047;-51
2022/08/03 02:02:07;;;;;;;1.80;1.50;;;15.60;99.90;;;;;;5108603;28;20039;-49
2022/08/03 02:04:56;;;;;;;1.73;1.48;;;15.60;99.90;;;;;;5113276;28;20047;-49
2022/08/03 02:07:25;;;;;;;6.00;1.60;;;15.60;99.90;;;;;;5113300;28;20047;-49
2022/08/03 02:09:54;;;;;;;3.35;1.75;;;15.50;99.90;;;;;;5093907;28;20046;-49
2022/08/03 02:12:24;;;;;;;2.67;1.20;;;15.50;99.90;;;;;;5091408;28;20051;-49
2022/08/03 02:14:52;;;;;;;3.92;1.48;;;15.50;99.90;;;;;;5092702;28;20051;-49
2022/08/03 02:17:20;;;;;;;2.22;1.30;;;15.50;99.90;;;;;;5092524;28;20036;-49
2022/08/03 02:20:08;;;;;;;3.05;1.45;;;15.50;99.90;;;;;;5111624;28;20062;-50
2022/08/03 02:22:38;;;;;;;3.28;1.75;;;15.50;99.90;;;;;;5112622;28;20096;-49
2022/08/03 02:25:09;;;;;;;3.22;1.70;;;15.50;99.90;;;;;;5094682;28;20044;-50
2022/08/03 02:27:39;;;;;;;2.05;1.60;;;15.50;99.90;;;;;;5112052;28;20048;-49
2022/08/03 02:30:11;;;;;;;1.90;1.60;;;15.50;99.90;;;;;;5104612;28;20407;-49
2022/08/03 02:32:41;;;;;;;1.98;1.50;;;15.50;99.90;;;;;;5112789;28;20052;-49
2022/08/03 02:35:13;;;;;;;4.43;1.90;;;15.40;99.90;;;;;;5112648;28;20051;-50
2022/08/03 02:37:51;;;;;;;2.33;1.50;;;15.40;99.90;;;;;;5111833;28;20043;-49
2022/08/03 02:40:21;;;;;;;4.30;2.17;;;15.40;99.90;;;;;;5112307;28;20480;-49
2022/08/03 02:42:52;;;;;;;2.60;1.73;;;15.40;99.90;;;;;;5094529;28;20092;-49
2022/08/03 02:45:20;;;;;;;4.38;2.15;;;15.40;99.90;;;;;;5112087;28;20044;-49
2022/08/03 02:47:48;;;;;;;2.42;1.50;;;15.40;99.90;;;;;;5094115;28;20043;-51
2022/08/03 02:50:22;;;;;;;2.33;1.77;;;15.40;99.90;;;;;;5093856;28;20059;-49
2022/08/03 02:52:51;;;;;;;3.85;1.40;;;15.40;99.90;;;;;;5094036;28;20047;-49
2022/08/03 02:55:20;;;;;;;1.70;1.13;;;15.40;99.90;;;;;;5111778;28;20032;-50
2022/08/03 02:57:48;;;;;;;1.83;1.58;;;15.40;99.90;;;;;;5111771;28;20501;-51
2022/08/03 03:00:16;;;;;;;1.58;1.48;;;15.30;99.90;;;;;;5111947;28;20044;-49
2022/08/03 03:03:00;;;;;;;4.28;1.50;;;15.30;99.90;;;;;;5112245;28;20039;-50
2022/08/03 03:05:27;;;;;;;2.85;1.80;;;15.30;99.90;;;;;;5112049;28;20043;-48
2022/08/03 03:08:16;;;;;;;4.97;1.58;;;15.30;99.90;;;;;;5091459;28;20117;-49
2022/08/03 03:10:47;;;;;;;3.45;2.10;;;15.30;99.90;;;;;;5091461;28;20044;-50
2022/08/03 03:13:21;;;;;;;3.83;1.88;;;15.30;99.90;;;;;;5105905;28;20043;-48
2022/08/03 03:15:48;;;;;;;3.85;1.60;;;15.30;99.90;;;;;;5112000;28;20055;-49
2022/08/03 03:18:16;;;;;;;5.35;1.73;;;15.30;99.90;;;;;;5111788;28;20051;-50
2022/08/03 03:20:50;;;;;;;7.43;2.10;;;15.20;99.90;;;;;;5111122;28;20043;-49
2022/08/03 03:23:18;;;;;;;3.20;2.30;;;15.20;99.90;;;;;;5111966;28;20043;-49
2022/08/03 03:25:45;;;;;;;9.10;3.55;;;15.10;99.90;;;;;;5111953;28;20101;-49
2022/08/03 03:28:12;;;;;;;2.65;1.77;;;15.10;99.90;;;;;;5111735;28;20044;-50
2022/08/03 03:30:39;;;;;;;3.25;2.13;;;15.10;99.90;;;;;;5112622;28;20036;-49
2022/08/03 03:33:06;;;;;;;2.13;1.65;;;15.10;99.90;;;;;;5118503;28;20096;-49
2022/08/03 03:35:34;;;;;;;4.75;2.40;;;15.20;99.90;;;;;;5118794;28;20055;-49
2022/08/03 03:38:05;;;;;;;12.85;2.20;;;15.20;99.90;;;;;;5118206;28;20035;-50
2022/08/03 03:40:34;;;;;;;3.30;2.03;;;15.30;99.90;;;;;;5113385;28;20532;-49
2022/08/03 03:43:02;;;;;;;4.55;1.73;;;15.30;99.90;;;;;;5105118;28;20090;-49
2022/08/03 03:45:29;;;;;;;;;;;15.30;99.90;;;;;;5098653;28;20040;-51
2022/08/03 03:47:59;;;;;;;2.33;1.45;;;15.30;99.90;;;;;;5107834;28;20334;-51
2022/08/03 03:50:26;;;;;;;3.45;1.80;;;15.20;99.90;;;;;;5117533;28;20043;-50
2022/08/03 03:52:53;;;;;;;2.03;1.58;;;15.30;99.90;;;;;;5113561;28;20050;-49
2022/08/03 03:55:20;;;;;;;4.63;2.10;;;15.20;99.90;;;;;;5114279;28;20036;-49
2022/08/03 03:57:47;;;;;;;2.25;1.73;;;15.20;99.90;;;;;;5115979;28;20047;-49
2022/08/03 04:00:15;;;;;;;2.70;1.98;;;15.20;99.90;;;;;;5102578;28;20040;-49
2022/08/03 04:02:42;;;;;;;2.90;2.00;;;15.20;99.90;;;;;;5112593;28;20051;-49
2022/08/03 04:10:59;;;;;;;3.83;2.15;;;15.20;99.90;;;;;;5117285;28;20043;-51
2022/08/03 04:13:40;;;;;;;3.00;2.45;;;15.20;99.90;;;;;;5117564;28;20070;-49
2022/08/03 04:16:11;;;;;;;3.05;2.10;;;15.30;99.90;;;;;;5102461;28;20052;-49
2022/08/03 04:18:40;;;;;;;3.40;2.30;;;15.30;99.90;;;;;;5104976;28;20477;-49
2022/08/03 04:21:11;;;;;;;7.72;2.15;;;15.30;99.90;;;;;;5093966;28;20043;-51
2022/08/03 04:23:42;;;;;;;4.47;1.98;;;15.30;99.90;;;;;;5098333;28;20443;-49
2022/08/03 04:26:11;;;;;;;6.18;2.00;;;15.30;99.90;;;;;;5100120;28;20718;-50
2022/08/03 04:28:40;;;;;;;3.33;2.05;;;15.30;99.90;;;;;;5097681;28;20040;-50
2022/08/03 04:31:07;;;;;;;6.07;2.38;;;15.30;99.90;;;;;;5097071;28;20043;-49
2022/08/03 04:33:37;;;;;;;4.55;2.70;;;15.30;99.90;;;;;;5097771;28;20104;-49
2022/08/03 04:36:07;;;;;;;3.63;2.45;;;15.30;99.90;;;;;;5108714;28;20408;-49
2022/08/03 04:39:00;;;;;;;7.55;2.35;;;15.40;99.90;;;;;;5108150;28;20080;-49
2022/08/03 04:41:29;;;;;;;6.20;2.40;;;15.50;99.90;;;;;;5089596;28;20427;-50
2022/08/03 04:43:57;;;;;;;8.43;2.70;;;15.60;99.90;;;;;;5110014;28;20527;-49
2022/08/03 04:46:51;;;;;;;5.63;2.10;;;15.70;99.90;;;;;;5111382;28;20105;-49
2022/08/03 04:49:20;;;;;;;3.75;2.40;;;15.70;99.90;;;;;;5097382;28;20051;-52
2022/08/03 04:51:48;;;;;;;4.28;2.17;;;15.70;99.90;;;;;;5114195;28;20051;-49
2022/08/03 04:54:15;;;;;;;4.13;2.17;;;15.80;99.90;;;;;;5110727;28;20040;-50
2022/08/03 04:56:42;;;;;;;5.45;2.40;;;15.80;99.90;;;;;;5102507;28;20097;-49
2022/08/03 04:59:10;;;;;;;4.55;2.13;;;15.90;99.90;;;;;;5111900;28;20031;-52
2022/08/03 05:01:38;;;;;;;;;;;15.90;99.90;;;;;;5114715;28;20040;-49
2022/08/03 05:04:04;;;;;;;3.00;2.40;;;15.90;99.90;;;;;;5113866;28;19920;-49
2022/08/03 05:06:31;;;;;;;2.10;1.80;;;15.90;99.90;;;;;;5113724;28;20039;-50
2022/08/03 05:08:58;;;;;;;2.75;2.05;;;16.00;99.90;;;;;;5114152;28;20051;-50
2022/08/03 05:11:25;;;;;;;4.82;1.75;;;16.10;99.90;;;;;;5114001;28;20062;-51
2022/08/03 05:13:52;;;;;;;2.60;2.08;;;16.10;99.90;;;;;;5113432;28;20085;-50
2022/08/03 05:16:19;;;;;;;3.03;2.05;;;16.10;99.90;;;;;;5114095;28;20511;-49
2022/08/03 05:18:45;;;;;;;5.63;2.08;;;16.10;99.90;;;;;;5114171;28;20050;-50
2022/08/03 05:21:13;;;;;;;5.55;2.20;;;16.10;99.90;;;;;;5113291;28;20046;-49
2022/08/03 05:23:40;;;;;;;;;;;16.20;99.90;;;;;;5114321;28;20057;-50
2022/08/03 05:26:07;;;;;;;3.28;2.10;;;16.20;99.90;;;;;;5113931;28;19924;-50
2022/08/03 05:28:33;;;;;;;4.30;2.20;;;16.30;99.90;;;;;;5113297;28;20055;-49
2022/08/03 05:31:00;;;;;;;3.67;2.85;;;16.30;99.90;;;;;;5106574;28;20062;-50
2022/08/03 05:33:27;;;;;;;2.28;1.60;;;16.40;99.90;;;;;;5113718;28;20043;-49
2022/08/03 05:35:54;;;;;;;4.78;1.98;;;16.30;99.90;;;;;;5095535;28;20487;-49
2022/08/03 05:38:30;;;;;;;7.35;2.70;;;16.40;99.90;;;;;;5112944;28;20438;-50
2022/08/03 05:41:04;;;;;;;5.18;2.10;;;16.40;99.90;;;;;;5113246;28;20585;-49
2022/08/03 05:43:53;;;;;;;4.35;2.15;;;16.50;99.90;;;;;;5113710;28;20047;-50
2022/08/03 05:46:21;;;;;;;2.92;2.15;;;16.50;99.90;;;;;;5113645;28;20066;-49
2022/08/03 05:48:48;;;;;;;2.70;1.98;;;16.60;99.90;;;;;;5112360;28;20047;-48
2022/08/03 05:51:15;;;;;;;2.95;2.17;;;16.70;99.90;;;;;;5113136;28;20096;-49
2022/08/03 05:53:42;;;;;;;3.15;1.85;;;16.70;99.90;;;;;;5095118;28;20058;-51
2022/08/03 05:56:10;;;;;;;3.50;2.00;;;16.80;99.90;;;;;;5113273;28;20047;-49
2022/08/03 05:58:44;;;;;;;5.55;2.88;;;16.90;99.90;;;;;;5112399;28;20052;-50
2022/08/03 06:01:11;;;;;;;6.78;2.67;;;16.90;99.90;;;;;;5105561;28;20504;-50
2022/08/03 06:03:38;;;;;;;3.38;2.28;;;17.00;99.90;;;;;;5113155;28;20054;-50
2022/08/03 06:06:05;;;;;;;5.15;2.30;;;17.00;99.90;;;;;;5113446;28;20052;-50
2022/08/03 06:08:32;;;;;;;12.55;2.03;;;17.10;99.90;;;;;;5106935;28;20036;-49
2022/08/03 06:10:59;;;;;;;2.40;1.70;;;17.20;99.90;;;;;;5091106;28;20040;-49
2022/08/03 06:13:26;;;;;;;4.40;2.00;;;17.20;99.90;;;;;;5093144;28;20381;-50
2022/08/03 06:15:53;;;;;;;3.70;2.15;;;17.20;99.90;;;;;;5092608;28;20032;-49
2022/08/03 06:18:19;;;;;;;3.17;2.05;;;17.30;99.90;;;;;;5106875;28;20065;-49
2022/08/03 06:20:46;;;;;;;3.03;1.88;;;17.40;99.90;;;;;;5112790;28;20089;-49
2022/08/03 06:23:16;;;;;;;2.53;2.00;;;17.50;99.90;;;;;;5112788;28;20047;-50
2022/08/03 06:25:44;;;;;;;3.40;2.30;;;17.50;99.90;;;;;;5112228;28;20047;-50
2022/08/03 06:28:12;;;;;;;5.10;2.28;;;17.60;99.90;;;;;;5112033;28;20044;-49
2022/08/03 06:31:00;;;;;;;5.07;2.13;;;17.70;99.90;;;;;;5112380;28;20079;-51
2022/08/03 06:33:27;;;;;;;;;;;17.80;99.90;;;;;;5112914;28;20052;-50
2022/08/03 06:36:13;;;;;;;3.40;2.03;;;17.90;99.90;;;;;;5111940;28;19923;-50
2022/08/03 06:38:40;;;;;;;3.33;2.00;;;18.10;99.90;;;;;;5112281;28;20048;-49
2022/08/03 06:41:07;;;;;;;6.13;2.13;;;18.20;99.90;;;;;;5112195;28;20403;-52
2022/08/03 06:43:36;;;;;;;2.92;2.00;;;18.40;99.90;;;;;;5112690;28;20048;-52
2022/08/03 06:46:04;;;;;;;4.28;2.03;;;18.50;99.90;;;;;;5093259;28;20514;-49
2022/08/03 06:48:31;;;;;;;2.22;1.90;;;18.70;99.90;;;;;;5112251;28;20036;-49
2022/08/03 06:50:58;;;;;;;4.75;2.83;;;18.80;99.90;;;;;;5111830;28;20429;-50
2022/08/03 06:53:25;;;;;;;5.70;1.90;;;18.90;99.90;;;;;;5111709;28;20441;-50
2022/08/03 06:55:52;;;;;;;4.43;2.50;;;19.10;99.90;;;;;;5112037;28;20040;-49
2022/08/03 06:58:21;;;;;;;4.03;2.17;;;19.20;99.90;;;;;;5116502;22;20406;-48
2022/08/03 07:00:48;;;;;;;4.05;2.10;;;19.40;99.90;;;;;;5131104;27;20039;-49
2022/08/03 07:03:15;;;;;;;3.03;2.35;;;19.40;99.90;;;;;;5130562;27;20035;-50
2022/08/03 07:05:42;;;;;;;2.72;2.05;;;19.60;99.90;;;;;;5131954;27;20046;-47
2022/08/03 07:08:09;;;;;;;3.38;1.85;;;19.70;99.90;;;;;;5132600;27;20130;-50
2022/08/03 07:10:36;;;;;;;2.63;2.42;;;19.90;99.90;;;;;;5130992;27;20055;-48
2022/08/03 07:13:03;;;;;;;2.42;1.65;;;20.10;99.90;;;;;;5130065;27;20043;-49
2022/08/03 07:15:30;;;;;;;4.57;1.88;;;20.20;99.90;;;;;;5128764;27;20042;-49
2022/08/03 07:18:17;;;;;;;3.45;1.80;;;20.40;99.90;;;;;;5125346;27;20123;-49
2022/08/03 07:20:54;;;;;;;6.55;1.58;;;20.50;99.90;;;;;;5131642;27;20088;-49
2022/08/03 07:23:21;;;;;;;2.67;1.98;;;20.50;99.90;;;;;;5132415;27;20510;-50
2022/08/03 07:25:49;;;;;;;4.68;1.95;;;20.70;99.90;;;;;;5132471;27;20047;-48
2022/08/03 07:28:16;;;;;;;5.28;2.00;;;20.70;99.90;;;;;;5131348;27;20053;-49
2022/08/03 07:30:42;;;;;;;4.13;1.60;;;20.70;99.90;;;;;;5128419;28;20043;-48
2022/08/03 07:33:09;;;;;;;3.00;1.83;;;20.80;99.90;;;;;;5132292;28;20104;-50
2022/08/03 07:35:36;;;;;;;2.20;1.92;;;20.90;99.90;;;;;;5132086;28;20035;-48
2022/08/03 07:38:03;;;;;;;2.85;1.88;;;21.10;99.90;;;;;;5130913;27;20035;-49
2022/08/03 07:40:29;;;;;;;3.35;2.05;;;21.20;99.90;;;;;;5131831;28;20046;-48
2022/08/03 07:42:58;;;;;;;2.50;1.73;;;21.30;99.90;;;;;;5132254;28;20046;-48
2022/08/03 07:45:25;;;;;;;;;;;21.40;99.90;;;;;;5131341;28;20043;-48
2022/08/03 07:47:52;;;;;;;3.63;1.87;;;21.60;99.90;;;;;;5131558;28;20034;-50
2022/08/03 07:50:20;;;;;;;6.55;2.15;;;21.70;99.90;;;;;;5131624;28;20051;-49
2022/08/03 07:52:48;;;;;;;3.60;1.88;;;21.80;99.90;;;;;;5132222;28;20046;-49
2022/08/03 07:55:17;;;;;;;4.90;1.88;;;21.90;99.90;;;;;;5130596;28;20070;-48
2022/08/03 07:57:44;;;;;;;2.17;1.67;;;22.00;99.90;;;;;;5131488;28;20052;-48
2022/08/03 08:00:17;;;;;;;3.10;1.70;;;22.10;99.90;;;;;;5131801;28;20302;-50
2022/08/03 08:02:44;;;;;;;3.30;1.88;;;22.30;99.90;;;;;;5130967;28;20088;-48
2022/08/03 08:05:11;;;;;;;2.55;2.00;;;22.50;99.90;;;;;;5131700;28;20039;-50
2022/08/03 08:07:39;;;;;;;2.22;1.70;;;22.50;99.90;;;;;;5131754;27;20039;-48
2022/08/03 08:10:08;;;;;;;2.80;1.90;;;22.60;99.90;;;;;;5131535;28;20050;-49
2022/08/03 08:12:36;;;;;;;2.50;2.10;;;22.80;99.90;;;;;;5130674;28;20047;-50
2022/08/03 08:15:04;;;;;;;4.82;2.63;;;22.90;99.90;;;;;;5131743;28;20043;-50
2022/08/03 08:17:39;;;;;;;3.88;1.67;;;23.00;99.90;;;;;;5132094;27;20514;-48
2022/08/03 08:20:06;;;;;;;3.47;1.65;;;23.10;99.90;;;;;;5134368;27;20076;-48
2022/08/03 08:22:34;;;;;;;3.03;2.05;;;23.20;99.90;;;;;;5136013;27;20055;-49
2022/08/03 08:25:03;;;;;;;4.65;2.03;;;23.40;99.90;;;;;;5135551;27;20051;-48
2022/08/03 08:27:30;;;;;;;2.50;2.20;;;23.40;99.90;;;;;;5134938;27;20465;-49
2022/08/03 08:30:19;;;;;;;5.03;2.05;;;23.50;99.90;;;;;;5128184;27;20043;-50
2022/08/03 08:32:47;;;;;;;6.15;1.80;;;23.70;99.90;;;;;;5135441;27;20079;-48
2022/08/03 08:35:14;;;;;;;1.95;1.70;;;23.70;99.90;;;;;;5135516;27;20047;-48
2022/08/03 08:37:42;;;;;;;4.80;2.00;;;23.80;99.90;;;;;;5119092;27;20043;-50
2022/08/03 08:40:19;;;;;;;3.67;1.73;;;23.90;99.90;;;;;;5135102;27;20039;-48
2022/08/03 08:42:46;;;;;;;3.10;2.00;;;24.10;99.90;;;;;;5135374;27;20043;-49
2022/08/03 08:45:24;;;;;;;3.65;2.20;;;24.40;99.90;;;;;;5133980;27;20495;-48
2022/08/03 08:47:53;;;;;;;4.78;1.90;;;24.50;99.90;;;;;;5134962;27;20495;-49
2022/08/03 08:50:28;;;;;;;1.67;1.58;;;24.50;99.90;;;;;;5134822;27;20055;-50
2022/08/03 08:52:59;;;;;;;2.45;1.70;;;24.60;99.90;;;;;;5134005;27;20503;-53
2022/08/03 08:55:26;;;;;;;2.97;2.08;;;24.60;99.90;;;;;;5134729;27;20042;-52
2022/08/03 08:58:00;;;;;;;4.45;2.00;;;24.70;99.90;;;;;;5134690;27;20036;-49
2022/08/03 09:00:27;;;;;;;3.53;1.92;;;24.80;99.90;;;;;;5133442;27;20043;-48
2022/08/03 09:02:54;;;;;;;2.58;2.00;;;24.90;99.90;;;;;;5134779;27;20055;-50
2022/08/03 09:05:20;;;;;;;2.17;1.83;;;25.00;99.90;;;;;;5134927;27;20445;-53
2022/08/03 09:08:07;;;;;;;2.42;1.65;;;25.10;99.90;;;;;;5134530;27;20471;-50
2022/08/03 09:10:34;;;;;;;2.80;1.90;;;25.20;99.90;;;;;;5133406;27;20088;-50
2022/08/03 09:13:01;;;;;;;2.85;2.22;;;25.20;99.90;;;;;;5134375;27;20037;-49
2022/08/03 09:15:31;;;;;;;3.75;1.80;;;25.30;99.90;;;;;;5134711;27;20126;-49
2022/08/03 09:18:00;;;;;;;4.97;2.10;;;25.40;99.90;;;;;;5134305;27;20046;-50
2022/08/03 09:20:29;;;;;;;2.42;2.22;;;25.40;99.90;;;;;;5133094;27;20031;-49
2022/08/03 09:23:03;;;;;;;2.45;1.70;;;25.50;99.90;;;;;;5134428;27;20100;-48
2022/08/03 09:25:57;;;;;;;2.78;1.85;;;25.60;99.90;;;;;;5134615;27;20078;-50
2022/08/03 09:28:33;;;;;;;8.30;3.88;;;25.60;99.90;;;;;;5132575;27;20496;-48
2022/08/03 09:31:32;;;;;;;2.35;1.85;;;25.80;99.90;;;;;;5127505;27;20099;-49
2022/08/03 09:34:07;;;;;;;3.17;1.90;;;25.90;99.90;;;;;;5134428;27;20043;-51
2022/08/03 09:36:42;;;;;;;2.78;1.70;;;26.00;99.90;;;;;;5134257;27;20043;-49
2022/08/03 09:39:23;;;;;;;2.88;1.83;;;26.10;99.90;;;;;;5132655;27;20035;-49
2022/08/03 09:42:17;;;;;;;3.90;2.00;;;26.30;99.90;;;;;;5113434;28;20036;-50
2022/08/03 09:44:50;;;;;;;1.73;1.63;;;26.60;99.90;;;;;;5113667;28;20046;-50
2022/08/03 09:47:31;;;;;;;6.03;1.50;;;26.80;99.90;;;;;;5122059;27;20043;-49
2022/08/03 09:50:00;;;;;;;2.83;2.03;;;26.90;99.90;;;;;;5133464;27;20095;-48
2022/08/03 09:52:48;;;;;;;5.25;2.17;;;26.90;99.90;;;;;;5133699;27;20509;-52
2022/08/03 09:55:23;;;;;;;4.55;1.73;;;27.10;99.90;;;;;;5132705;27;20472;-50
2022/08/03 09:58:10;;;;;;;2.60;1.90;;;27.20;99.90;;;;;;5126135;27;20074;-49
2022/08/03 10:01:03;;;;;;;3.38;1.92;;;27.30;99.90;;;;;;5133387;27;20047;-48
2022/08/03 10:03:33;;;;;;;4.75;1.90;;;27.20;99.90;;;;;;5132266;27;20043;-50
2022/08/03 10:06:18;;;;;;;3.35;1.92;;;27.20;99.90;;;;;;5133717;27;20047;-49
2022/08/03 10:08:45;;;;;;;5.05;2.13;;;27.20;99.90;;;;;;5133738;27;20062;-49
2022/08/03 10:11:28;;;;;;;3.10;1.92;;;27.20;99.90;;;;;;5132327;27;20055;-49
2022/08/03 10:13:55;;;;;;;4.88;1.77;;;27.20;99.90;;;;;;5133340;27;20043;-49
2022/08/03 10:16:32;;;;;;;2.92;2.10;;;27.30;99.90;;;;;;5133422;27;20074;-50
2022/08/03 10:18:59;;;;;;;3.33;2.20;;;27.50;99.90;;;;;;5133458;27;20039;-49
2022/08/03 10:21:33;;;;;;;2.25;1.83;;;27.50;99.90;;;;;;5131946;27;20084;-50
2022/08/03 10:24:06;;;;;;;5.80;1.90;;;27.50;99.90;;;;;;5133442;27;20047;-49
2022/08/03 10:26:35;;;;;;;2.70;1.83;;;27.40;99.90;;;;;;5133352;27;20079;-49
2022/08/03 10:29:06;;;;;;;3.47;1.75;;;27.40;99.90;;;;;;5132036;27;20087;-49
2022/08/03 10:31:40;;;;;;;3.35;2.00;;;27.40;99.90;;;;;;5132837;27;20441;-49
2022/08/03 10:34:27;;;;;;;5.18;2.58;;;27.40;99.90;;;;;;5133232;27;20070;-50
2022/08/03 10:36:58;;;;;;;2.05;1.85;;;27.40;99.90;;;;;;5131908;27;20038;-50
2022/08/03 10:39:28;;;;;;;5.82;1.90;;;27.50;99.90;;;;;;5132881;27;20050;-52
2022/08/03 10:41:57;;;;;;;2.70;1.70;;;27.50;99.90;;;;;;5131768;27;20501;-51
2022/08/03 10:44:32;;;;;;;1.77;1.60;;;27.70;99.90;;;;;;5132852;27;20043;-50
2022/08/03 10:46:59;;;;;;;5.35;1.42;;;27.80;99.90;;;;;;5131906;27;20043;-49
2022/08/03 10:49:27;;;;;;;1.67;1.58;;;27.80;99.90;;;;;;5114219;27;20150;-49
2022/08/03 10:52:03;;;;;;;4.28;1.80;;;27.80;99.90;;;;;;5132906;27;20141;-50
2022/08/03 10:57:47;;;;;;;1.65;1.27;;;28.00;99.90;;;;;;5132519;27;20043;-50
2022/08/03 11:00:23;;;;;;;3.80;1.63;;;27.90;99.90;;;;;;5132474;27;20484;-50
2022/08/03 11:03:09;;;;;;;1.73;1.20;;;27.90;99.20;;;;;;5131513;27;20036;-48
2022/08/03 11:05:39;;;;;;;3.03;1.50;;;28.10;99.20;;;;;;5132663;27;20043;-51
2022/08/03 11:08:19;;;;;;;1.40;1.30;;;28.20;99.80;;;;;;5132381;27;20054;-49
2022/08/03 11:10:47;;;;;;;2.65;1.20;;;28.40;99.40;;;;;;5132410;27;20043;-50
2022/08/03 11:13:19;;;;;;;2.55;1.50;;;28.40;98.40;;;;;;5131205;27;20042;-50
2022/08/03 11:15:50;;;;;;;1.42;1.10;;;28.60;98.60;;;;;;5132254;27;20043;-49
2022/08/03 11:18:18;;;;;;;1.83;1.40;;;28.60;98.80;;;;;;5132438;27;20441;-51
2022/08/03 11:20:46;;;;;;;2.42;1.10;;;28.80;97.90;;;;;;5130653;27;20095;-49
2022/08/03 11:23:14;;;;;;;2.67;1.33;;;28.90;97.50;;;;;;5132347;27;20047;-49
2022/08/03 11:26:14;;;;;;;2.67;1.60;;;28.90;98.70;;;;;;5132445;27;20054;-49
2022/08/03 11:28:43;;;;;;;1.60;1.30;;;29.00;99.10;;;;;;5132474;27;20456;-51
2022/08/03 11:31:25;;;;;;;3.35;1.30;;;29.10;99.90;;;;;;5130563;28;20043;-50
2022/08/03 11:34:14;;;;;;;2.35;1.08;;;29.30;98.90;;;;;;5111834;28;20075;-53
2022/08/03 11:37:19;;;;;;;1.30;1.20;;;29.20;97.90;;;;;;5111261;28;20043;-50
2022/08/03 11:39:50;;;;;;;2.00;1.27;;;29.20;97.00;;;;;;5123295;28;20047;-52
2022/08/03 11:42:23;;;;;;;3.05;1.40;;;29.40;96.90;;;;;;5130606;28;20050;-50
2022/08/03 11:44:50;;;;;;;1.70;1.42;;;29.40;97.80;;;;;;5132161;28;20066;-49
2022/08/03 11:47:19;;;;;;;1.67;1.00;;;29.40;96.30;;;;;;5131873;27;20051;-50
2022/08/03 11:49:47;;;;;;;2.33;1.10;;;29.40;94.50;;;;;;5131378;28;20455;-51
2022/08/03 11:52:16;;;;;;;4.72;1.45;;;29.50;94.90;;;;;;5133551;27;20051;-51
2022/08/03 11:54:43;;;;;;;2.85;1.20;;;29.80;96.40;;;;;;5136328;27;20491;-50
2022/08/03 11:57:10;;;;;;;;;;;29.60;94.80;;;;;;5136447;27;20118;-49
2022/08/03 11:59:37;;;;;;;4.40;1.27;;;29.80;93.60;;;;;;5134649;27;20314;-49
2022/08/03 12:02:15;;;;;;;1.27;1.13;;;29.70;94.10;;;;;;5135593;27;20526;-50
2022/08/03 12:05:00;;;;;;;;;;;29.70;95.10;;;;;;5136608;27;20047;-49
2022/08/03 12:07:29;;;;;;;1.33;1.23;;;29.60;93.90;;;;;;5134709;27;20394;-52
2022/08/03 12:10:15;;;;;;;4.53;1.10;;;29.60;92.60;;;;;;5128446;27;20050;-50
2022/08/03 12:12:43;;;;;;;1.48;1.30;;;29.80;93.40;;;;;;5136099;27;20055;-49
2022/08/03 12:15:12;;;;;;;2.08;1.27;;;29.90;92.80;;;;;;5135784;27;20555;-50
2022/08/03 12:17:40;;;;;;;;;;;30.10;91.10;;;;;;5135375;27;20039;-51
2022/08/03 12:20:09;;;;;;;1.60;1.50;;;30.20;90.90;;;;;;5135069;27;19988;-53
2022/08/03 12:22:38;;;;;;;3.22;1.30;;;30.10;90.70;;;;;;5135707;27;20043;-50
2022/08/03 12:25:06;;;;;;;2.72;1.30;;;30.10;90.30;;;;;;5135949;27;20088;-52
2022/08/03 12:27:34;;;;;;;2.00;1.20;;;30.20;90.00;;;;;;5134662;27;20043;-50
2022/08/03 12:30:01;;;;;;;1.17;1.08;;;30.40;86.80;;;;;;5135165;27;20490;-49
2022/08/03 12:32:29;;;;;;;1.23;1.13;;;30.60;86.90;;;;;;5135366;27;20047;-51
2022/08/03 12:35:03;;;;;;;1.75;1.20;;;30.80;87.10;;;;;;5134113;27;20103;-50
2022/08/03 12:37:30;;;;;;;3.80;1.30;;;31.00;88.60;;;;;;5135033;27;20148;-51
2022/08/03 12:40:05;;;;;;;1.85;1.27;;;31.00;83.80;;;;;;5135052;27;20039;-50
2022/08/03 12:42:37;;;;;;;2.42;1.50;;;31.10;87.00;;;;;;5134115;27;20043;-49
2022/08/03 12:45:24;;;;;;;1.70;1.60;;;31.00;89.10;;;;;;5134936;27;20062;-51
2022/08/03 12:47:55;;;;;;;2.10;1.38;;;30.80;91.10;;;;;;5135321;27;20051;-49
2022/08/03 12:50:33;;;;;;;4.22;1.65;;;30.80;92.50;;;;;;5116648;27;20047;-49
2022/08/03 12:53:04;;;;;;;1.80;1.38;;;30.60;92.60;;;;;;5134793;27;20043;-49
2022/08/03 12:55:36;;;;;;;3.92;1.50;;;30.50;92.30;;;;;;5135021;27;20080;-49
2022/08/03 12:58:34;;;;;;;6.90;1.65;;;30.40;92.40;;;;;;5150158;22;20047;-50
2022/08/03 13:01:05;;;;;;;2.03;1.40;;;30.40;92.70;;;;;;5131126;27;20038;-50
2022/08/03 13:03:45;;;;;;;2.20;1.60;;;30.60;92.50;;;;;;5132188;27;20035;-52
2022/08/03 13:06:20;;;;;;;2.08;1.25;;;30.50;93.70;;;;;;5133496;27;20035;-50
2022/08/03 13:08:50;;;;;;;1.55;1.30;;;30.30;93.80;;;;;;5125054;27;20051;-51
2022/08/03 13:11:22;;;;;;;1.85;1.30;;;30.20;93.90;;;;;;5095602;28;20066;-52
2022/08/03 13:14:09;;;;;;;1.98;1.50;;;30.20;94.40;;;;;;5114335;28;20116;-50
2022/08/03 13:16:45;;;;;;;1.88;1.40;;;30.00;94.60;;;;;;5113632;28;20480;-51
2022/08/03 13:19:11;;;;;;;1.50;1.40;;;29.90;93.80;;;;;;5106275;28;20035;-51
2022/08/03 13:21:42;;;;;;;1.50;1.40;;;29.90;93.90;;;;;;5113750;28;20062;-49